createdAt,value
2019-05-19T00:02:40.719Z,14.10
2019-05-19T00:05:27.908Z,14.10
2019-05-19T00:08:15.873Z,14.00
2019-05-19T00:11:04.158Z,14.00
2019-05-19T00:13:52.168Z,14.00
2019-05-19T00:16:40.119Z,13.90
2019-05-19T00:19:28.052Z,13.90
2019-05-19T00:22:16.015Z,13.80
2019-05-19T00:25:04.644Z,13.80
2019-05-19T00:28:04.106Z,13.70
2019-05-19T00:30:42.185Z,13.70
2019-05-19T00:33:30.542Z,13.70
2019-05-19T00:35:59.294Z,13.60
2019-05-19T00:38:27.914Z,13.60
2019-05-19T00:40:56.573Z,13.60
2019-05-19T00:43:44.606Z,13.50
2019-05-19T00:49:25.841Z,13.50
2019-05-19T00:52:14.141Z,13.40
2019-05-19T00:55:02.199Z,13.40
2019-05-19T01:00:57.400Z,13.30
2019-05-19T01:03:45.329Z,13.30
2019-05-19T01:06:33.602Z,13.20
2019-05-19T01:09:21.517Z,13.20
2019-05-19T01:15:02.873Z,13.10
2019-05-19T01:17:50.801Z,13.00
2019-05-19T01:20:39.115Z,13.00
2019-05-19T01:23:27.120Z,13.00
2019-05-19T01:29:08.016Z,13.00
2019-05-19T01:34:43.962Z,13.00
2019-05-19T01:37:12.589Z,13.10
2019-05-19T01:39:53.149Z,13.00
2019-05-19T01:42:33.852Z,13.00
2019-05-19T01:45:14.751Z,13.00
2019-05-19T01:47:55.292Z,13.00
2019-05-19T01:50:36.149Z,13.00
2019-05-19T01:53:17.009Z,13.00
2019-05-19T01:55:58.904Z,12.80
2019-05-19T01:58:39.661Z,13.00
2019-05-19T02:01:20.342Z,13.00
2019-05-19T02:04:00.906Z,13.00
2019-05-19T02:06:41.800Z,13.00
2019-05-19T02:09:22.616Z,12.80
2019-05-19T02:12:03.618Z,12.90
2019-05-19T02:14:44.725Z,12.90
2019-05-19T02:17:25.579Z,12.90
2019-05-19T02:20:06.458Z,12.90
2019-05-19T02:22:47.624Z,12.90
2019-05-19T02:25:29.617Z,12.90
2019-05-19T02:28:10.258Z,12.90
2019-05-19T02:30:39.361Z,12.90
2019-05-19T02:33:07.952Z,12.90
2019-05-19T02:35:36.570Z,12.80
2019-05-19T02:38:05.193Z,12.80
2019-05-19T02:40:36.290Z,12.80
2019-05-19T02:43:05.153Z,12.80
2019-05-19T02:45:35.874Z,12.70
2019-05-19T02:48:24.530Z,12.70
2019-05-19T02:51:33.212Z,12.70
2019-05-19T02:54:21.309Z,12.70
2019-05-19T02:57:09.641Z,12.80
2019-05-19T02:59:58.018Z,12.70
2019-05-19T03:02:45.982Z,12.60
2019-05-19T03:05:14.644Z,12.50
2019-05-19T03:07:43.242Z,12.50
2019-05-19T03:10:12.097Z,12.50
2019-05-19T03:12:40.683Z,12.50
2019-05-19T03:18:23.364Z,12.50
2019-05-19T03:21:12.059Z,12.40
2019-05-19T03:24:01.209Z,12.40
2019-05-19T03:26:49.449Z,12.40
2019-05-19T03:35:44.875Z,12.40
2019-05-19T03:38:32.833Z,12.40
2019-05-19T03:41:13.338Z,12.40
2019-05-19T03:43:54.867Z,12.40
2019-05-19T03:46:35.529Z,12.40
2019-05-19T03:49:16.911Z,12.30
2019-05-19T03:51:45.494Z,12.30
2019-05-19T03:54:33.444Z,12.20
2019-05-19T03:57:21.373Z,12.10
2019-05-19T04:00:09.855Z,12.10
2019-05-19T04:02:57.766Z,12.10
2019-05-19T04:05:45.802Z,12.10
2019-05-19T04:08:33.762Z,12.10
2019-05-19T04:11:21.698Z,12.10
2019-05-19T04:14:09.675Z,12.00
2019-05-19T04:16:57.613Z,12.00
2019-05-19T04:19:45.565Z,12.00
2019-05-19T04:22:33.503Z,12.10
2019-05-19T04:25:02.127Z,12.10
2019-05-19T04:27:30.722Z,12.10
2019-05-19T04:29:59.341Z,12.10
2019-05-19T04:32:28.205Z,12.10
2019-05-19T04:34:56.900Z,12.10
2019-05-19T04:37:25.525Z,12.10
2019-05-19T04:39:54.416Z,11.80
2019-05-19T04:42:23.368Z,12.00
2019-05-19T04:44:51.947Z,11.90
2019-05-19T04:47:20.553Z,11.90
2019-05-19T04:49:49.190Z,11.90
2019-05-19T04:52:37.625Z,11.90
2019-05-19T04:55:25.541Z,11.90
2019-05-19T04:57:54.170Z,12.00
2019-05-19T05:00:42.129Z,11.90
2019-05-19T05:03:30.338Z,11.90
2019-05-19T05:06:18.305Z,12.00
2019-05-19T05:09:06.833Z,12.00
2019-05-19T05:11:54.802Z,12.00
2019-05-19T05:14:42.724Z,11.90
2019-05-19T05:17:30.690Z,11.90
2019-05-19T05:20:18.783Z,11.80
2019-05-19T05:23:06.750Z,11.90
2019-05-19T05:25:54.742Z,11.90
2019-05-19T05:28:43.089Z,11.90
2019-05-19T05:31:31.013Z,11.90
2019-05-19T05:34:18.997Z,11.90
2019-05-19T05:37:07.313Z,11.90
2019-05-19T05:39:55.274Z,12.00
2019-05-19T05:42:35.652Z,12.00
2019-05-19T05:45:16.466Z,12.10
2019-05-19T05:47:57.718Z,12.20
2019-05-19T05:50:38.849Z,12.20
2019-05-19T05:53:19.687Z,12.30
2019-05-19T05:56:01.168Z,12.40
2019-05-19T05:58:42.217Z,12.50
2019-05-19T06:01:23.057Z,12.40
2019-05-19T06:04:03.730Z,12.40
2019-05-19T06:06:45.893Z,12.50
2019-05-19T06:09:26.657Z,12.50
2019-05-19T06:12:07.305Z,12.70
2019-05-19T06:14:47.862Z,12.70
2019-05-19T06:17:28.358Z,12.80
2019-05-19T06:20:09.136Z,12.90
2019-05-19T06:22:54.465Z,12.90
2019-05-19T06:25:08.694Z,12.90
2019-05-19T06:27:37.265Z,12.90
2019-05-19T06:30:25.224Z,13.00
2019-05-19T06:33:13.299Z,13.10
2019-05-19T06:36:01.279Z,13.30
2019-05-19T06:38:49.203Z,13.30
2019-05-19T06:41:30.278Z,13.30
2019-05-19T06:44:11.166Z,13.30
2019-05-19T06:46:51.900Z,13.40
2019-05-19T06:49:33.425Z,13.40
2019-05-19T06:52:14.676Z,13.40
2019-05-19T06:54:55.401Z,13.60
2019-05-19T06:57:36.419Z,13.60
2019-05-19T07:00:16.799Z,13.70
2019-05-19T07:02:57.644Z,13.80
2019-05-19T07:05:38.622Z,14.10
2019-05-19T07:08:19.502Z,14.40
2019-05-19T07:11:00.643Z,14.60
2019-05-19T07:13:41.745Z,15.00
2019-05-19T07:16:22.896Z,15.40
2019-05-19T07:21:46.509Z,15.40
2019-05-19T07:24:28.081Z,15.10
2019-05-19T07:27:08.809Z,15.00
2019-05-19T07:29:49.985Z,15.10
2019-05-19T07:32:31.322Z,15.10
2019-05-19T07:35:12.297Z,15.30
2019-05-19T07:37:52.902Z,15.50
2019-05-19T07:40:33.819Z,15.70
2019-05-19T07:43:15.175Z,16.00
2019-05-19T07:45:56.256Z,16.20
2019-05-19T07:48:37.368Z,16.30
2019-05-19T07:51:17.842Z,16.50
2019-05-19T07:53:58.406Z,16.40
2019-05-19T07:56:39.215Z,16.50
2019-05-19T07:59:08.207Z,16.70
2019-05-19T08:01:36.808Z,17.10
2019-05-19T08:04:24.769Z,17.40
2019-05-19T08:07:12.741Z,17.70
2019-05-19T08:10:00.721Z,18.00
2019-05-19T08:12:48.629Z,18.30
2019-05-19T08:15:36.917Z,18.30
2019-05-19T08:18:24.888Z,18.20
2019-05-19T08:21:12.860Z,18.40
2019-05-19T08:24:01.353Z,18.40
2019-05-19T08:26:50.412Z,18.70
2019-05-19T08:29:38.745Z,18.90
2019-05-19T08:32:26.677Z,18.90
2019-05-19T08:35:14.641Z,18.90
2019-05-19T08:38:02.646Z,18.70
2019-05-19T08:41:04.894Z,18.80
2019-05-19T08:43:33.587Z,19.00
2019-05-19T08:46:13.933Z,19.20
2019-05-19T08:48:58.206Z,19.50
2019-05-19T08:51:37.314Z,19.90
2019-05-19T08:54:19.078Z,20.20
2019-05-19T08:57:00.067Z,20.40
2019-05-19T08:59:40.930Z,20.70
2019-05-19T09:02:09.901Z,20.80
2019-05-19T09:04:38.485Z,20.80
2019-05-19T09:07:26.450Z,20.60
2019-05-19T09:10:14.443Z,20.40
2019-05-19T09:13:02.492Z,19.90
2019-05-19T09:15:50.407Z,20.00
2019-05-19T09:18:38.482Z,20.20
2019-05-19T09:21:26.417Z,20.20
2019-05-19T09:24:29.248Z,20.10
2019-05-19T09:27:05.081Z,20.20
2019-05-19T09:29:53.736Z,20.40
2019-05-19T09:32:42.673Z,20.60
2019-05-19T09:35:30.920Z,20.40
2019-05-19T09:38:19.254Z,20.40
2019-05-19T09:43:54.811Z,20.80
2019-05-19T09:46:42.789Z,21.00
2019-05-19T09:52:39.264Z,21.40
2019-05-19T09:55:27.195Z,21.70
2019-05-19T09:58:19.726Z,21.80
2019-05-19T10:01:05.256Z,21.70
2019-05-19T10:03:53.609Z,21.70
2019-05-19T10:06:41.801Z,21.80
2019-05-19T10:09:50.544Z,22.00
2019-05-19T10:12:38.505Z,22.30
2019-05-19T10:15:26.440Z,22.00
2019-05-19T10:18:14.440Z,22.00
2019-05-19T10:21:02.829Z,22.20
2019-05-19T10:23:50.796Z,22.30
2019-05-19T10:26:39.089Z,22.60
2019-05-19T10:29:27.057Z,22.70
2019-05-19T10:32:15.451Z,22.90
2019-05-19T10:38:11.077Z,22.90
2019-05-19T10:40:59.374Z,22.70
2019-05-19T10:43:40.629Z,22.70
2019-05-19T10:46:09.245Z,22.80
2019-05-19T10:48:37.818Z,22.60
2019-05-19T10:51:06.467Z,22.60
2019-05-19T10:53:35.336Z,22.40
2019-05-19T10:56:03.989Z,22.50
2019-05-19T10:58:51.966Z,22.80
2019-05-19T11:01:52.290Z,22.80
2019-05-19T11:04:29.885Z,22.80
2019-05-19T11:07:18.200Z,23.10
2019-05-19T11:10:25.913Z,23.30
2019-05-19T11:13:14.134Z,23.10
2019-05-19T11:16:02.469Z,23.10
2019-05-19T11:18:50.431Z,23.20
2019-05-19T11:21:38.385Z,23.20
2019-05-19T11:24:26.586Z,23.10
2019-05-19T11:27:14.961Z,23.10
2019-05-19T11:30:02.987Z,23.10
2019-05-19T11:32:50.957Z,23.20
2019-05-19T11:35:39.256Z,23.20
2019-05-19T11:38:27.177Z,23.20
2019-05-19T11:41:15.430Z,23.30
2019-05-19T11:43:56.646Z,23.10
2019-05-19T11:46:25.265Z,23.10
2019-05-19T11:52:20.883Z,23.00
2019-05-19T11:55:10.399Z,23.20
2019-05-19T11:57:58.972Z,23.30
2019-05-19T12:00:47.380Z,23.20
2019-05-19T12:03:35.750Z,23.00
2019-05-19T12:06:38.225Z,23.00
2019-05-19T12:09:13.271Z,23.10
2019-05-19T12:14:54.895Z,23.10
2019-05-19T12:17:43.377Z,23.20
2019-05-19T12:20:31.332Z,23.30
2019-05-19T12:23:19.353Z,23.40
2019-05-19T12:26:22.177Z,23.40
2019-05-19T12:28:56.914Z,23.40
2019-05-19T12:31:45.131Z,23.50
2019-05-19T12:34:33.161Z,23.60
2019-05-19T12:37:33.061Z,23.70
2019-05-19T12:40:22.930Z,23.60
2019-05-19T12:43:00.685Z,23.70
2019-05-19T12:45:41.344Z,23.70
2019-05-19T12:48:22.330Z,23.70
2019-05-19T12:51:03.054Z,23.70
2019-05-19T12:53:43.715Z,23.60
2019-05-19T12:56:38.789Z,23.70
2019-05-19T12:59:07.590Z,23.70
2019-05-19T13:01:49.066Z,23.80
2019-05-19T13:04:29.804Z,23.90
2019-05-19T13:07:11.073Z,24.00
2019-05-19T13:09:52.775Z,24.00
2019-05-19T13:12:34.333Z,23.90
2019-05-19T13:15:15.644Z,23.80
2019-05-19T13:17:56.295Z,23.80
2019-05-19T13:20:37.673Z,23.60
2019-05-19T13:23:18.922Z,23.50
2019-05-19T13:25:59.360Z,23.40
2019-05-19T13:28:40.559Z,23.20
2019-05-19T13:31:21.679Z,23.10
2019-05-19T13:34:02.350Z,23.10
2019-05-19T13:36:43.859Z,23.10
2019-05-19T13:39:24.516Z,23.20
2019-05-19T13:41:53.413Z,23.00
2019-05-19T13:44:22.336Z,23.00
2019-05-19T13:46:50.917Z,22.80
2019-05-19T13:49:19.880Z,22.80
2019-05-19T13:51:48.601Z,22.80
2019-05-19T13:54:36.876Z,22.80
2019-05-19T13:57:25.180Z,22.80
2019-05-19T14:00:13.534Z,22.80
2019-05-19T14:03:01.530Z,22.80
2019-05-19T14:05:49.561Z,22.70
2019-05-19T14:08:37.598Z,22.70
2019-05-19T14:11:25.563Z,22.80
2019-05-19T14:14:13.495Z,22.70
2019-05-19T14:17:01.537Z,22.60
2019-05-19T14:19:49.481Z,22.60
2019-05-19T14:22:37.448Z,22.60
2019-05-19T14:25:25.390Z,22.60
2019-05-19T14:28:13.798Z,22.60
2019-05-19T14:31:02.126Z,22.60
2019-05-19T14:33:50.380Z,22.60
2019-05-19T14:36:38.381Z,22.70
2019-05-19T14:39:26.362Z,22.80
2019-05-19T14:45:15.938Z,22.70
2019-05-19T14:47:56.771Z,22.50
2019-05-19T14:50:38.054Z,22.50
2019-05-19T14:53:19.249Z,22.50
2019-05-19T14:55:59.949Z,22.50
2019-05-19T14:58:41.562Z,22.70
2019-05-19T15:01:22.720Z,22.90
2019-05-19T15:04:04.226Z,23.00
2019-05-19T15:06:45.124Z,23.00
2019-05-19T15:09:25.554Z,23.00
2019-05-19T15:12:06.852Z,23.00
2019-05-19T15:14:47.722Z,22.90
2019-05-19T15:17:28.122Z,22.90
2019-05-19T15:20:09.430Z,22.90
2019-05-19T15:22:50.492Z,22.90
2019-05-19T15:25:31.150Z,22.80
2019-05-19T15:28:11.544Z,22.70
2019-05-19T15:30:52.265Z,22.60
2019-05-19T15:33:38.402Z,22.50
2019-05-19T15:36:15.958Z,22.40
2019-05-19T15:38:56.944Z,22.40
2019-05-19T15:41:37.813Z,22.30
2019-05-19T15:44:18.422Z,22.20
2019-05-19T15:46:59.343Z,22.00
2019-05-19T15:49:40.553Z,21.90
2019-05-19T15:52:21.348Z,21.90
2019-05-19T15:55:02.303Z,21.90
2019-05-19T15:57:43.370Z,21.90
2019-05-19T16:00:23.807Z,21.80
2019-05-19T16:03:05.134Z,21.70
2019-05-19T16:05:45.551Z,21.50
2019-05-19T16:08:26.041Z,21.40
2019-05-19T16:11:06.765Z,21.30
2019-05-19T16:13:47.666Z,21.40
2019-05-19T16:16:28.350Z,21.40
2019-05-19T16:19:09.893Z,21.40
2019-05-19T16:21:50.372Z,21.40
2019-05-19T16:24:32.606Z,21.40
2019-05-19T16:27:13.600Z,21.40
2019-05-19T16:29:54.042Z,21.30
2019-05-19T16:32:35.024Z,21.20
2019-05-19T16:35:16.575Z,21.00
2019-05-19T16:37:57.880Z,20.80
2019-05-19T16:40:38.261Z,20.70
2019-05-19T16:43:19.933Z,20.70
2019-05-19T16:46:00.310Z,20.80
2019-05-19T16:48:41.943Z,20.80
2019-05-19T16:51:10.798Z,20.80
2019-05-19T16:53:39.372Z,20.70
2019-05-19T16:56:08.000Z,20.70
2019-05-19T16:58:44.907Z,20.70
2019-05-19T17:01:06.883Z,20.80
2019-05-19T17:03:35.773Z,20.80
2019-05-19T17:06:04.458Z,20.80
2019-05-19T17:08:33.189Z,20.90
2019-05-19T17:11:21.515Z,20.90
2019-05-19T17:14:09.505Z,20.80
2019-05-19T17:16:57.854Z,20.80
2019-05-19T17:19:46.176Z,20.70
2019-05-19T17:22:34.381Z,20.80
2019-05-19T17:25:22.321Z,20.80
2019-05-19T17:28:10.290Z,20.80
2019-05-19T17:30:58.605Z,20.70
2019-05-19T17:33:46.624Z,20.60
2019-05-19T17:36:34.917Z,20.50
2019-05-19T17:39:22.846Z,20.30
2019-05-19T17:42:13.776Z,20.10
2019-05-19T17:44:41.409Z,20.00
2019-05-19T17:47:10.119Z,19.90
2019-05-19T17:49:38.708Z,19.90
2019-05-19T17:52:07.597Z,19.90
2019-05-19T17:54:55.639Z,19.90
2019-05-19T17:57:44.449Z,19.90
2019-05-19T18:00:51.740Z,19.90
2019-05-19T18:03:52.420Z,19.80
2019-05-19T18:06:29.919Z,19.80
2019-05-19T18:09:19.160Z,19.70
2019-05-19T18:12:07.489Z,19.60
2019-05-19T18:14:55.761Z,19.50
2019-05-19T18:20:51.117Z,19.40
2019-05-19T18:23:38.996Z,19.20
2019-05-19T18:26:26.962Z,19.10
2019-05-19T18:29:31.322Z,19.10
2019-05-19T18:32:04.603Z,19.00
2019-05-19T18:34:54.890Z,18.90
2019-05-19T18:40:37.316Z,18.70
2019-05-19T18:43:25.405Z,18.60
2019-05-19T18:46:13.678Z,18.40
2019-05-19T18:48:54.425Z,18.30
2019-05-19T18:51:35.232Z,18.10
2019-05-19T18:54:16.478Z,18.00
2019-05-19T18:56:57.619Z,18.00
2019-05-19T18:59:46.847Z,17.90
2019-05-19T19:02:21.112Z,17.90
2019-05-19T19:05:02.484Z,17.90
2019-05-19T19:10:36.382Z,17.70
2019-05-19T19:13:17.743Z,17.50
2019-05-19T19:15:58.998Z,17.40
2019-05-19T19:18:40.250Z,17.30
2019-05-19T19:21:21.670Z,17.10
2019-05-19T19:24:03.045Z,17.00
2019-05-19T19:26:44.478Z,17.00
2019-05-19T19:29:25.594Z,16.90
2019-05-19T19:32:06.486Z,16.90
2019-05-19T19:34:47.629Z,16.80
2019-05-19T19:37:16.635Z,16.70
2019-05-19T19:39:45.670Z,16.70
2019-05-19T19:42:33.649Z,16.60
2019-05-19T19:45:14.822Z,16.60
2019-05-19T19:47:55.353Z,16.50
2019-05-19T19:50:36.077Z,16.40
2019-05-19T19:53:16.911Z,16.40
2019-05-19T19:55:58.237Z,16.30
2019-05-19T19:58:39.494Z,16.20
2019-05-19T20:01:20.054Z,16.10
2019-05-19T20:04:01.180Z,16.00
2019-05-19T20:06:42.321Z,16.00
2019-05-19T20:09:11.062Z,15.90
2019-05-19T20:11:39.992Z,15.80
2019-05-19T20:14:09.049Z,15.90
2019-05-19T20:16:37.991Z,15.80
2019-05-19T20:19:39.242Z,15.70
2019-05-19T20:22:10.333Z,15.70
2019-05-19T20:24:51.231Z,15.70
2019-05-19T20:27:31.739Z,15.60
2019-05-19T20:30:12.260Z,15.50
2019-05-19T20:32:53.485Z,15.50
2019-05-19T20:35:34.394Z,15.40
2019-05-19T20:38:15.466Z,15.40
2019-05-19T20:40:55.906Z,15.40
2019-05-19T20:43:24.669Z,15.40
2019-05-19T20:45:53.257Z,15.30
2019-05-19T20:48:21.957Z,15.30
2019-05-19T20:50:51.054Z,15.30
2019-05-19T20:53:19.795Z,15.20
2019-05-19T20:55:48.818Z,15.20
2019-05-19T20:58:17.482Z,15.20
2019-05-19T21:01:05.516Z,15.10
2019-05-19T21:10:06.904Z,15.10
2019-05-19T21:12:45.124Z,15.10
2019-05-19T21:15:33.198Z,15.10
2019-05-19T21:18:21.137Z,15.00
2019-05-19T21:24:27.878Z,15.00
2019-05-19T21:27:19.886Z,15.00
2019-05-19T21:29:55.612Z,14.90
2019-05-19T21:32:43.862Z,14.80
2019-05-19T21:35:31.905Z,14.80
2019-05-19T21:38:20.218Z,14.80
2019-05-19T21:41:22.382Z,14.70
2019-05-19T21:43:39.053Z,14.80
2019-05-19T21:46:08.197Z,14.70
2019-05-19T21:48:56.198Z,14.70
2019-05-19T21:51:37.323Z,14.70
2019-05-19T21:54:20.007Z,14.70
2019-05-19T21:57:01.236Z,14.70
2019-05-19T21:59:42.613Z,14.70
2019-05-19T22:02:23.146Z,14.60
2019-05-19T22:05:04.330Z,14.60
2019-05-19T22:08:04.371Z,14.60
2019-05-19T22:10:45.632Z,14.60
2019-05-19T22:13:26.101Z,14.60
2019-05-19T22:16:11.279Z,14.60
2019-05-19T22:18:25.298Z,14.50
2019-05-19T22:20:54.042Z,14.50
2019-05-19T22:23:22.658Z,14.50
2019-05-19T22:26:10.617Z,14.50
2019-05-19T22:28:58.589Z,14.50
2019-05-19T22:31:46.833Z,14.50
2019-05-19T22:34:35.245Z,14.40
2019-05-19T22:37:23.634Z,14.50
2019-05-19T22:40:25.854Z,14.40
2019-05-19T22:43:01.416Z,14.40
2019-05-19T22:45:49.384Z,14.40
2019-05-19T22:48:29.954Z,14.30
2019-05-19T22:51:10.698Z,14.30
2019-05-19T22:53:51.233Z,14.30
2019-05-19T22:56:32.240Z,14.20
2019-05-19T22:59:19.914Z,14.20
2019-05-19T23:01:55.825Z,14.10
2019-05-19T23:04:36.989Z,14.10
2019-05-19T23:07:17.497Z,14.00
2019-05-19T23:09:59.115Z,14.00
2019-05-19T23:12:40.514Z,14.00
2019-05-19T23:15:21.341Z,13.90
2019-05-19T23:18:02.666Z,13.90
2019-05-19T23:20:43.242Z,13.90
2019-05-19T23:23:24.315Z,13.80
2019-05-19T23:26:04.641Z,13.80
2019-05-19T23:28:45.750Z,13.80
2019-05-19T23:31:26.817Z,13.70
2019-05-19T23:34:08.126Z,13.70
2019-05-19T23:36:49.382Z,13.60
2019-05-19T23:39:30.278Z,13.50
2019-05-19T23:42:11.111Z,13.50
2019-05-19T23:44:52.153Z,13.40
2019-05-19T23:47:21.012Z,13.40
2019-05-19T23:49:49.637Z,13.30
2019-05-19T23:52:18.225Z,13.30
2019-05-19T23:54:46.853Z,13.30
2019-05-19T23:57:15.710Z,13.30
2019-05-19T23:59:44.351Z,13.30
